This is the latest recevied weather packets stored in our database for station/object M0HPP-13. If no packets are shown the sender has not sent any weather packets the latest 10 day(s).
| Time | Temp. | Humidity | Pressure | Rain* | Wind** | Luminosity | Snow |
|---|---|---|---|---|---|---|---|
| 1777567819 | 17.22° C | 51% | 1020.2 hPa | 0 mm | - | 301 W/m² | - |
| 1777566619 | 17.22° C | 50% | 1020.4 hPa | 0 mm | - | 199 W/m² | - |
| 1777566019 | 17.22° C | 50% | 1020.6 hPa | 0 mm | - | 313 W/m² | - |
| 1777565419 | 17.22° C | 51% | 1020.7 hPa | 0 mm | - | 367 W/m² | - |
| 1777564819 | 17.22° C | 49% | 1020.9 hPa | 0 mm | - | 386 W/m² | - |
| 1777564219 | 16.67° C | 52% | 1020.9 hPa | 0 mm | - | 402 W/m² | - |
| 1777563619 | 16.67° C | 52% | 1021 hPa | 0 mm | - | 418 W/m² | - |
| 1777563019 | 16.67° C | 48% | 1021.3 hPa | 0 mm | - | 446 W/m² | - |
| 1777557619 | 15° C | 36% | 1022.5 hPa | 0 mm | - | 550 W/m² | - |
| 1777554619 | 15° C | 41% | 1023 hPa | 0 mm | - | 574 W/m² | - |
| 1777553419 | 14.44° C | 42% | 1023.3 hPa | 0 mm | - | 578 W/m² | - |
| 1777552219 | 13.33° C | 49% | 1023.7 hPa | 0 mm | - | 572 W/m² | - |
| 1777551619 | 13.33° C | 50% | 1023.7 hPa | 0 mm | - | 439 W/m² | - |
| 1777551019 | 13.33° C | 50% | 1023.8 hPa | 0 mm | - | 398 W/m² | - |
| 1777550419 | 12.78° C | 51% | 1023.9 hPa | 0 mm | - | 562 W/m² | - |
| 1777549819 | 12.78° C | 52% | 1024.1 hPa | 0 mm | - | 565 W/m² | - |
| 1777548619 | 12.78° C | 52% | 1024.4 hPa | 0 mm | - | 556 W/m² | - |
| 1777548019 | 12.78° C | 52% | 1024.4 hPa | 0 mm | - | 549 W/m² | - |
| 1777547419 | 12.78° C | 52% | 1024.4 hPa | 0 mm | - | 541 W/m² | - |
| 1777546219 | 12.78° C | 57% | 1024.7 hPa | 0 mm | - | 515 W/m² | - |
| 1777545619 | 12.78° C | 55% | 1024.7 hPa | 0 mm | - | 506 W/m² | - |
| 1777545019 | 12.78° C | 52% | 1024.8 hPa | 0 mm | - | 496 W/m² | - |
| 1777544419 | 13.33° C | 51% | 1024.8 hPa | 0 mm | - | 487 W/m² | - |
| 1777543819 | 13.33° C | 51% | 1024.8 hPa | 0 mm | - | 475 W/m² | - |
| 1777543219 | 13.33° C | 49% | 1025 hPa | 0 mm | - | 462 W/m² | - |
* Rain latest hour (hover to see other rain measurements)
** Current wind speed in m/s (hover to see current wind gust speed)